createdAt,value
2017-09-06T03:30:50.758Z,9.60
2017-09-06T03:33:18.662Z,10.03
2017-09-06T03:35:46.251Z,10.50
2017-09-06T03:38:13.842Z,10.80
2017-09-06T03:40:41.507Z,11.43
2017-09-06T03:43:09.109Z,11.07
2017-09-06T03:45:37.041Z,10.80
2017-09-06T03:48:04.661Z,10.13
2017-09-06T03:50:32.267Z,10.33
2017-09-06T03:53:00.326Z,10.47
2017-09-06T03:55:27.920Z,10.30
2017-09-06T03:57:55.517Z,10.30
2017-09-06T04:00:23.142Z,12.30
2017-09-06T04:02:50.767Z,9.47
2017-09-06T04:05:18.364Z,10.10
2017-09-06T04:07:46.345Z,12.27
2017-09-06T04:10:13.970Z,8.53
2017-09-06T04:12:41.570Z,9.17
2017-09-06T04:15:09.189Z,9.77
2017-09-06T04:17:36.790Z,10.20
2017-09-06T04:20:05.571Z,9.37
2017-09-06T04:22:33.168Z,9.07
2017-09-06T04:25:00.774Z,10.13
2017-09-06T04:27:28.412Z,11.63
2017-09-06T04:29:56.015Z,11.83
2017-09-06T04:32:23.976Z,9.70
2017-09-06T04:34:51.584Z,9.67
2017-09-06T04:37:19.177Z,9.50
2017-09-06T04:39:46.833Z,9.13
2017-09-06T04:42:14.504Z,11.23
2017-09-06T04:44:42.393Z,9.93
2017-09-06T04:47:09.990Z,9.63
2017-09-06T04:49:37.595Z,13.47
2017-09-06T04:52:05.682Z,11.50
2017-09-06T04:54:33.286Z,13.20
2017-09-06T04:57:00.899Z,10.90
2017-09-06T04:59:28.521Z,10.87
2017-09-06T05:01:56.437Z,12.70
2017-09-06T05:04:24.404Z,13.03
2017-09-06T05:06:52.023Z,10.67
2017-09-06T05:09:19.654Z,11.30
2017-09-06T05:11:47.597Z,12.27
2017-09-06T05:14:15.189Z,10.13
2017-09-06T05:16:42.791Z,10.33
2017-09-06T05:19:10.456Z,11.70
2017-09-06T05:21:38.044Z,10.50
2017-09-06T05:24:06.013Z,11.90
2017-09-06T05:26:33.653Z,10.37
2017-09-06T05:29:01.253Z,9.70
2017-09-06T05:31:29.191Z,10.53
2017-09-06T05:33:56.797Z,10.30
2017-09-06T05:36:24.416Z,9.60
2017-09-06T05:38:52.030Z,10.87
2017-09-06T05:41:19.628Z,8.77
2017-09-06T05:43:47.598Z,9.53
2017-09-06T05:46:15.206Z,9.10
2017-09-06T05:48:42.818Z,10.33
2017-09-06T05:51:10.427Z,9.37
2017-09-06T05:53:38.082Z,12.73
2017-09-06T05:56:06.129Z,11.03
2017-09-06T05:58:33.729Z,9.43
2017-09-06T06:01:01.332Z,9.70
2017-09-06T06:03:28.944Z,10.50
2017-09-06T06:05:56.569Z,10.70
2017-09-06T06:08:24.537Z,11.23
2017-09-06T06:10:52.263Z,11.00
2017-09-06T06:13:19.884Z,9.87
2017-09-06T06:15:47.824Z,17.27
2017-09-06T06:18:15.457Z,10.47
2017-09-06T06:20:43.075Z,10.70
2017-09-06T06:23:11.127Z,10.10
2017-09-06T06:25:38.751Z,10.27
2017-09-06T06:28:06.388Z,12.17
2017-09-06T06:30:34.014Z,8.90
2017-09-06T06:33:01.631Z,10.53
2017-09-06T06:35:29.652Z,9.00
2017-09-06T06:37:57.272Z,10.40
2017-09-06T06:40:24.884Z,9.13
2017-09-06T06:45:26.750Z,9.10
2017-09-06T06:47:54.810Z,7.60
2017-09-06T06:50:22.443Z,9.03
2017-09-06T06:52:50.030Z,8.33
2017-09-06T06:55:18.017Z,7.17
2017-09-06T06:57:45.617Z,6.23
2017-09-06T07:00:13.199Z,6.73
2017-09-06T07:02:41.062Z,5.43
2017-09-06T07:05:08.660Z,5.60
2017-09-06T07:07:36.277Z,6.32
2017-09-06T07:10:04.304Z,6.27
2017-09-06T07:12:32.005Z,5.20
2017-09-06T07:14:59.699Z,5.20
2017-09-06T07:17:27.334Z,5.47
2017-09-06T07:19:55.171Z,5.30
2017-09-06T07:22:23.183Z,4.87
2017-09-06T07:24:50.997Z,5.27
2017-09-06T07:27:18.644Z,4.93
2017-09-06T07:29:46.269Z,5.13
2017-09-06T07:32:13.871Z,4.57
2017-09-06T07:34:41.750Z,4.97
2017-09-06T07:37:09.516Z,4.73
2017-09-06T07:39:37.117Z,5.00
2017-09-06T07:42:04.798Z,5.67
2017-09-06T07:44:32.398Z,11.37
2017-09-06T07:47:00.312Z,7.17
2017-09-06T07:49:27.962Z,5.67
2017-09-06T07:51:55.555Z,4.80
2017-09-06T07:54:23.169Z,4.60
2017-09-06T07:56:50.776Z,5.20
2017-09-06T07:59:18.694Z,4.17
2017-09-06T08:01:46.299Z,5.23
2017-09-06T08:04:13.903Z,4.13
2017-09-06T08:06:41.584Z,3.30
2017-09-06T08:09:09.180Z,3.60
2017-09-06T08:11:37.069Z,3.70
2017-09-06T08:14:04.680Z,4.13
2017-09-06T08:16:32.299Z,3.50
2017-09-06T08:19:00.259Z,3.40
2017-09-06T08:21:27.850Z,2.60
2017-09-06T08:23:55.433Z,2.70
2017-09-06T08:26:23.056Z,3.07
2017-09-06T08:28:50.717Z,2.60
2017-09-06T08:31:18.638Z,6.33
2017-09-06T08:33:46.234Z,3.53
2017-09-06T08:36:13.829Z,2.47
2017-09-06T08:38:41.743Z,2.77
2017-09-06T08:41:09.347Z,3.00
2017-09-06T08:43:36.984Z,2.67
2017-09-06T08:46:04.927Z,2.30
2017-09-06T08:48:32.536Z,2.87
2017-09-06T08:51:00.150Z,2.83
2017-09-06T08:53:27.798Z,3.60
2017-09-06T08:55:58.540Z,2.77
2017-09-06T08:58:26.504Z,2.80
2017-09-06T09:00:54.136Z,2.60
2017-09-06T09:03:21.729Z,2.70
2017-09-06T09:05:49.636Z,2.37
2017-09-06T09:08:17.330Z,2.27
2017-09-06T09:10:44.939Z,2.60
2017-09-06T09:13:12.563Z,2.30
2017-09-06T09:15:40.947Z,2.60
2017-09-06T09:18:08.904Z,2.80
2017-09-06T09:20:36.521Z,2.80
2017-09-06T09:23:04.124Z,2.23
2017-09-06T09:25:31.768Z,2.40
2017-09-06T09:27:59.395Z,2.80
2017-09-06T09:30:27.271Z,3.63
2017-09-06T09:32:54.869Z,2.70
2017-09-06T09:35:22.502Z,2.80
2017-09-06T09:37:50.140Z,2.43
2017-09-06T09:40:17.741Z,2.40
2017-09-06T09:42:45.821Z,4.67
2017-09-06T09:45:13.423Z,2.10
2017-09-06T09:47:41.096Z,2.60
2017-09-06T09:50:08.758Z,2.70
2017-09-06T09:52:36.445Z,3.30
2017-09-06T09:55:04.366Z,5.30
2017-09-06T09:57:31.983Z,2.47
2017-09-06T09:59:59.675Z,2.37
2017-09-06T10:02:27.311Z,2.97
2017-09-06T10:04:54.930Z,2.17
2017-09-06T10:07:22.908Z,3.70
2017-09-06T10:09:50.508Z,1.90
2017-09-06T10:12:18.115Z,5.80
2017-09-06T10:14:45.738Z,2.00
2017-09-06T10:17:13.384Z,1.77
2017-09-06T10:19:41.296Z,2.63
2017-09-06T10:22:08.907Z,1.93
2017-09-06T10:24:36.528Z,3.13
2017-09-06T10:27:04.413Z,2.20
2017-09-06T10:29:32.015Z,1.60
2017-09-06T10:31:59.624Z,1.50
2017-09-06T10:34:27.288Z,1.67
2017-09-06T10:36:55.661Z,2.40
2017-09-06T10:39:23.613Z,1.63
2017-09-06T10:41:51.212Z,1.40
2017-09-06T10:44:18.815Z,1.40
2017-09-06T10:46:46.427Z,1.77
2017-09-06T10:49:14.034Z,1.00
2017-09-06T10:51:42.025Z,1.30
2017-09-06T10:54:09.630Z,1.37
2017-09-06T10:56:37.231Z,1.47
2017-09-06T10:59:04.841Z,1.60
2017-09-06T11:01:32.440Z,2.50
2017-09-06T11:04:00.317Z,1.43
2017-09-06T11:06:27.930Z,1.10
2017-09-06T11:08:55.541Z,2.23
2017-09-06T11:11:23.161Z,2.10
2017-09-06T11:13:50.773Z,1.63
2017-09-06T11:16:18.714Z,1.50
2017-09-06T11:18:46.454Z,2.60
2017-09-06T11:21:14.052Z,1.00
2017-09-06T11:23:41.737Z,1.43
2017-09-06T11:26:09.393Z,1.40
2017-09-06T11:28:37.361Z,1.30
2017-09-06T11:31:05.026Z,1.20
2017-09-06T11:33:32.626Z,1.53
2017-09-06T11:36:00.598Z,1.20
2017-09-06T11:38:28.221Z,3.60
2017-09-06T11:40:55.835Z,1.40
2017-09-06T11:43:23.838Z,2.60
2017-09-06T11:45:51.468Z,1.63
2017-09-06T11:48:19.081Z,1.47
2017-09-06T11:50:46.799Z,1.43
2017-09-06T11:53:14.396Z,1.30
2017-09-06T11:55:42.306Z,1.60
2017-09-06T11:58:10.000Z,3.13
2017-09-06T12:00:37.615Z,1.27
2017-09-06T12:03:05.650Z,1.50
2017-09-06T12:05:33.251Z,1.57
2017-09-06T12:08:00.851Z,1.20
2017-09-06T12:10:28.729Z,1.83
2017-09-06T12:12:56.339Z,1.93
2017-09-06T12:15:23.945Z,1.70
2017-09-06T12:17:51.935Z,1.67
2017-09-06T12:20:19.547Z,6.13
2017-09-06T12:22:47.173Z,1.40
2017-09-06T12:25:15.090Z,1.50
2017-09-06T12:27:42.694Z,1.20
2017-09-06T12:30:10.339Z,1.43
2017-09-06T12:32:37.966Z,1.47
2017-09-06T12:35:05.578Z,2.50
2017-09-06T12:37:33.528Z,3.13
2017-09-06T12:40:01.131Z,2.53
2017-09-06T12:42:28.730Z,1.30
2017-09-06T12:44:56.415Z,1.10
2017-09-06T12:47:24.018Z,2.80
2017-09-06T12:49:51.914Z,2.00
2017-09-06T12:52:19.551Z,1.57
2017-09-06T12:54:47.148Z,1.57
2017-09-06T12:57:14.825Z,1.50
2017-09-06T12:59:42.441Z,1.33
2017-09-06T13:02:10.392Z,1.30
2017-09-06T13:04:38.007Z,2.00
2017-09-06T13:07:05.620Z,1.10
2017-09-06T13:09:33.247Z,2.27
2017-09-06T13:12:00.851Z,1.13
2017-09-06T13:14:28.746Z,1.77
2017-09-06T13:16:56.349Z,1.00
2017-09-06T13:19:23.952Z,1.53
2017-09-06T13:21:51.963Z,1.17
2017-09-06T13:24:19.552Z,1.00
2017-09-06T13:26:47.155Z,1.10
2017-09-06T13:29:15.158Z,1.00
2017-09-06T13:31:42.776Z,2.10
2017-09-06T13:34:10.412Z,0.90
2017-09-06T13:36:38.038Z,1.37
2017-09-06T13:39:05.637Z,1.93
2017-09-06T13:41:33.561Z,1.10
2017-09-06T13:44:01.177Z,1.20
2017-09-06T13:46:28.825Z,1.10
2017-09-06T13:48:56.766Z,1.10
2017-09-06T13:51:24.372Z,1.83
2017-09-06T13:53:51.971Z,0.97
2017-09-06T13:56:19.587Z,1.40
2017-09-06T13:58:47.187Z,1.50
2017-09-06T14:01:15.274Z,1.90
2017-09-06T14:03:42.883Z,1.27
2017-09-06T14:06:10.481Z,1.30
2017-09-06T14:08:38.438Z,1.30
2017-09-06T14:11:06.039Z,1.20
2017-09-06T14:13:34.412Z,1.30
2017-09-06T14:16:03.084Z,1.17
2017-09-06T14:18:30.692Z,1.30
2017-09-06T14:20:58.308Z,1.50
2017-09-06T14:23:26.269Z,1.77
2017-09-06T14:25:53.882Z,1.50
2017-09-06T14:28:21.491Z,3.03
2017-09-06T14:30:49.561Z,1.50
2017-09-06T14:33:17.168Z,1.77
2017-09-06T14:35:44.775Z,1.60
2017-09-06T14:38:12.508Z,1.47
2017-09-06T14:40:40.124Z,1.50
2017-09-06T14:43:08.173Z,2.23
2017-09-06T14:45:35.785Z,1.50
2017-09-06T14:48:03.396Z,1.60
2017-09-06T14:50:30.980Z,1.50
2017-09-06T14:52:58.620Z,1.50
2017-09-06T14:55:26.593Z,1.80
2017-09-06T14:57:54.194Z,1.53
2017-09-06T15:00:21.806Z,1.53
2017-09-06T15:02:49.439Z,1.50
2017-09-06T15:05:17.043Z,1.40
2017-09-06T15:07:45.045Z,1.60
2017-09-06T15:10:12.678Z,2.17
2017-09-06T15:12:40.343Z,2.10
2017-09-06T15:15:08.412Z,1.60
2017-09-06T15:17:36.026Z,1.50
2017-09-06T15:20:03.634Z,1.30
2017-09-06T15:22:31.401Z,1.93
2017-09-06T15:24:58.992Z,1.43
2017-09-06T15:27:27.017Z,1.40
2017-09-06T15:29:54.605Z,2.13
2017-09-06T15:32:22.268Z,2.30
2017-09-06T15:34:49.904Z,32.33
2017-09-06T15:37:17.508Z,11.10
2017-09-06T15:39:45.535Z,11.60
2017-09-06T15:42:13.171Z,1.93
2017-09-06T15:44:40.782Z,1.80
2017-09-06T15:47:08.483Z,4.30
2017-09-06T15:49:36.163Z,1.20
2017-09-06T15:52:04.185Z,1.97
2017-09-06T15:54:31.801Z,3.77
2017-09-06T15:56:59.681Z,2.50
2017-09-06T15:59:27.339Z,3.30
2017-09-06T16:01:54.955Z,9.43
2017-09-06T16:04:22.968Z,3.50
2017-09-06T16:06:50.637Z,6.07
2017-09-06T16:09:18.393Z,5.90
2017-09-06T16:11:46.475Z,1.90
2017-09-06T16:14:14.153Z,1.83
2017-09-06T16:16:41.758Z,2.90
2017-09-06T16:19:09.963Z,3.10
2017-09-06T16:21:37.578Z,4.73
2017-09-06T16:24:05.195Z,6.20
2017-09-06T16:26:33.188Z,4.40
2017-09-06T16:29:00.814Z,15.10
2017-09-06T16:31:28.422Z,8.00
2017-09-06T16:33:56.388Z,4.77
2017-09-06T16:36:24.013Z,2.00
2017-09-06T16:38:51.627Z,2.03
2017-09-06T16:41:19.254Z,1.80
2017-09-06T16:43:46.917Z,2.20
2017-09-06T16:46:14.909Z,2.00
2017-09-06T16:48:42.515Z,4.10
2017-09-06T16:51:10.129Z,3.60
2017-09-06T16:53:37.753Z,2.40
2017-09-06T16:56:05.410Z,2.77
2017-09-06T16:58:33.468Z,3.17
2017-09-06T17:01:01.096Z,3.17
2017-09-06T17:03:28.703Z,3.40
2017-09-06T17:05:56.338Z,4.40
2017-09-06T17:08:23.947Z,4.10
2017-09-06T17:10:51.978Z,4.23
2017-09-06T17:13:19.958Z,4.80
2017-09-06T17:15:47.884Z,2.77
2017-09-06T17:18:15.502Z,2.43
2017-09-06T17:20:43.094Z,4.67
2017-09-06T17:23:11.114Z,4.50
2017-09-06T17:25:39.626Z,3.10
2017-09-06T17:28:07.246Z,2.90
2017-09-06T17:30:34.892Z,3.13
2017-09-06T17:33:02.525Z,2.40
2017-09-06T17:35:30.477Z,3.33
2017-09-06T17:37:58.092Z,4.07
2017-09-06T17:40:25.693Z,3.77
2017-09-06T17:42:53.320Z,2.17
2017-09-06T17:45:20.927Z,6.33
2017-09-06T17:47:48.534Z,3.30
2017-09-06T17:50:16.550Z,4.13
2017-09-06T17:52:44.159Z,3.67
2017-09-06T17:55:11.793Z,3.00
2017-09-06T17:57:39.427Z,2.90
2017-09-06T18:00:07.034Z,2.43
2017-09-06T18:02:35.049Z,3.53
2017-09-06T18:05:02.662Z,3.30
2017-09-06T18:07:30.306Z,3.07
2017-09-06T18:09:57.963Z,4.33
2017-09-06T18:12:25.624Z,2.70
2017-09-06T18:14:53.621Z,3.17
2017-09-06T18:17:21.906Z,2.20
2017-09-06T18:19:49.518Z,3.37
2017-09-06T18:22:17.492Z,3.50
2017-09-06T18:24:45.100Z,2.47
2017-09-06T18:27:12.711Z,7.03
2017-09-06T18:29:40.351Z,7.90
2017-09-06T18:32:10.166Z,19.90
2017-09-06T18:34:38.251Z,8.90
2017-09-06T18:37:06.784Z,13.47
2017-09-06T18:39:34.448Z,3.13
2017-09-06T18:42:03.394Z,3.70
2017-09-06T18:44:31.107Z,3.43
2017-09-06T18:46:59.898Z,2.67
2017-09-06T18:49:28.143Z,4.87
2017-09-06T18:51:55.788Z,3.80
2017-09-06T18:54:23.808Z,2.13
2017-09-06T18:56:51.437Z,1.90
2017-09-06T18:59:19.110Z,3.33
2017-09-06T19:01:47.262Z,4.33
2017-09-06T19:04:14.908Z,2.43
2017-09-06T19:06:42.600Z,3.10
2017-09-06T19:09:10.656Z,4.00
2017-09-06T19:11:38.340Z,2.83
2017-09-06T19:14:06.117Z,2.50
2017-09-06T19:16:34.610Z,1.93
2017-09-06T19:19:02.240Z,2.70
2017-09-06T19:21:30.329Z,5.00
2017-09-06T19:23:58.697Z,3.20
2017-09-06T19:26:26.395Z,2.73
2017-09-06T19:28:54.068Z,2.43
2017-09-06T19:31:21.751Z,3.83
2017-09-06T19:33:49.816Z,3.20
2017-09-06T19:36:17.496Z,4.23
2017-09-06T19:38:45.313Z,4.30
2017-09-06T19:41:12.963Z,3.50
2017-09-06T19:43:40.604Z,7.00
2017-09-06T19:46:08.615Z,5.73
2017-09-06T19:48:36.239Z,3.63
2017-09-06T19:51:03.864Z,3.80
2017-09-06T19:53:31.554Z,3.37
2017-09-06T19:55:59.215Z,5.00
2017-09-06T19:58:28.090Z,4.63
2017-09-06T20:00:55.718Z,5.33
2017-09-06T20:03:23.876Z,3.90
2017-09-06T20:05:51.787Z,4.97
2017-09-06T20:08:19.404Z,3.53
2017-09-06T20:10:47.031Z,3.80
2017-09-06T20:13:14.953Z,4.43
2017-09-06T20:15:42.605Z,3.77
2017-09-06T20:18:10.279Z,3.60
2017-09-06T20:20:38.854Z,3.27
2017-09-06T20:23:06.510Z,3.33
2017-09-06T20:25:34.601Z,2.93
2017-09-06T20:28:02.271Z,2.67
2017-09-06T20:30:30.684Z,4.37
2017-09-06T20:32:58.334Z,4.80
2017-09-06T20:35:26.161Z,2.50
2017-09-06T20:37:54.397Z,2.83
2017-09-06T20:40:22.082Z,5.60
2017-09-06T20:42:49.694Z,5.87
2017-09-06T20:45:17.332Z,4.63
2017-09-06T20:47:44.943Z,4.20
2017-09-06T20:50:12.936Z,3.60
2017-09-06T20:52:40.583Z,4.43
2017-09-06T20:55:08.230Z,2.80
2017-09-06T20:57:35.867Z,3.50
2017-09-06T21:00:03.855Z,4.17
2017-09-06T21:02:31.911Z,2.97
2017-09-06T21:04:59.524Z,3.33
2017-09-06T21:07:27.161Z,3.90
2017-09-06T21:09:54.796Z,3.57
2017-09-06T21:12:22.418Z,3.10
2017-09-06T21:14:50.480Z,6.23
2017-09-06T21:17:18.128Z,4.70
2017-09-06T21:19:45.747Z,4.30
2017-09-06T21:22:13.686Z,3.30
2017-09-06T21:24:41.286Z,3.20
2017-09-06T21:27:09.644Z,3.83
2017-09-06T21:29:37.252Z,3.00
2017-09-06T21:32:04.851Z,3.90
2017-09-06T21:34:32.507Z,3.00
2017-09-06T21:37:00.177Z,2.90
2017-09-06T21:39:28.245Z,3.63
2017-09-06T21:41:56.910Z,3.80
2017-09-06T21:44:24.547Z,4.17
2017-09-06T21:46:52.447Z,2.70
2017-09-06T21:49:20.063Z,4.97
2017-09-06T21:51:47.685Z,5.20
2017-09-06T21:54:15.740Z,3.47
2017-09-06T21:56:43.357Z,5.90
2017-09-06T21:59:10.980Z,3.00
2017-09-06T22:01:39.029Z,4.67
2017-09-06T22:04:06.669Z,2.57
2017-09-06T22:06:34.269Z,5.97
2017-09-06T22:09:01.894Z,3.03
2017-09-06T22:11:29.520Z,5.03
2017-09-06T22:13:57.555Z,9.20
2017-09-06T22:16:25.156Z,7.93
2017-09-06T22:18:52.767Z,5.17
2017-09-06T22:21:20.398Z,4.90
2017-09-06T22:23:47.990Z,6.17
2017-09-06T22:26:16.063Z,4.00
2017-09-06T22:28:43.676Z,10.47
